Share

Slayton, MN

Slayton (KDVP) Elev 1624 ft | 43.99 °N, 95.78 °W | Change Station

Current weather conditions updated 12 minutes ago

Clear
Clear
49 °F
Feels Like 49 °F
N
22
Wind Variable Wind from SE
Gusts 29 mph
Sunrise 6:34 AM
Sunset 8:10 PM
Moon Waning Gibbous

Tomorrow is forecast to be Warmer than today.

Pressure 30.00 in
Visibility 10.0 miles
Clouds Clear
Dew Point 34 °F
Humidity 56%
Rainfall 0.00 in
Snow Depth Not available.
UV 0 out of 16
Pollen 10.70 out of 12
Air Quality Not available.
Flu Activity Sporadic
METAR KDVP 190312Z AUTO 14019G25KT 10SM CLR 10/01 A3000 RMK AO2 T00950010

More Conditions Fewer Conditions

Pressure 30.00 in
Visibility 10.0 miles
Clouds Clear
Dew Point 34 °F
Humidity 56%
Rainfall 0.00 in
Snow Depth Not available.
UV 0 out of 16
Pollen 10.70 out of 12
Air Quality Not available.
Flu Activity Sporadic
METAR KDVP 190312Z AUTO 14019G25KT 10SM CLR 10/01 A3000 RMK AO2 T00950010

More Conditions Fewer Conditions

10-Day Weather Forecast

Almanac

Astronomy

Apr. 18, 2014 Rise Set
Actual Time 6:34 AM CDT 8:10 PM CDT
Civil Twilight 6:04 AM CDT 8:41 PM CDT
Nautical Twilight 5:27 AM CDT 9:18 PM CDT
Astronomical Twilight 4:48 AM CDT 9:57 PM CDT
Moon No Moon Rise 8:53 AM CDT (4/18)
Length of Visible Light 14h 36m
Length of Day
13h 35m
Tomorrow will be 2m 50s longer.
Waning Gibbous, 83% of the Moon is Illuminated
Today
Waning Gibbous
Apr 22
Last Quarter
Apr 29
New
May 6
First Quarter
May 14
Full

Today's Extremes

State Highs State Lows

Community

  • Sunset Silhouettes
    Sunset Silhouettes
  • FL sunset Perico Isle
    FL sunset Perico Isle
  • Cloudy spring view
    Cloudy spring view
  • Old barn
    Old barn
  • What's for Lunch?
    What's for Lunch?

WunderPhotos

Upload Photos

1,702,624 photos uploaded!

WunderBlogs® & News

Nearby

Snow Depth

Station Depth Elevation
No new snow has been reported.

Coastal Water Temperatures

Place Temperature
No Stations Reporting

Earthquake Activity

City Distance Mag. Time & Date
No recent earthquake activity has been reported nearby.
Minimum magnitude displayed is 2.5.

Nearby Weather Stations

Station Location Temp. Dew Point Humidity Wind Precip. Elev Updated Type
CityViewRanch, Westbrook, MN 51.0 °F 35 °F 55% SE  at  10.0 mph 0.00 in / hr 1432 ft 10:17 PM CDT Normal
300th st, Westbrook, MN 50.9 °F 35 °F 54% South  at  16.8 mph 0.00 in / hr 1430 ft 10:24 PM CDT Rapid Fire
Rock Lake, Balaton, MN 50.7 °F 36 °F 56% ESE  at  4.0 mph 0.00 in / hr 1568 ft 10:24 PM CDT Rapid Fire
Bremer Pond, Hardwick, MN 53.6 °F 35 °F 49% SSE  at  8.0 mph 0.00 in / hr 1486 ft 10:19 PM CDT Normal
Sorenson Seed, Storden, MN 50.6 °F 35 °F 54% SE  at  30.0 mph 0.00 in / hr 1404 ft 10:20 PM CDT Normal

Show More Stations Show Fewer Stations

What do you think?

We're not finished. Please let us know what you like, what you don't like, and what you are still missing.